sensor_id;sensor_type;location;lat;lon;timestamp;P1;durP1;ratioP1;P2;durP2;ratioP2
1957;SDS011;979;51.076;13.748;2024-02-23T07:28:04;12.77;;;12.40;;
1957;SDS011;979;51.076;13.748;2024-02-23T08:41:05;13.40;;;13.00;;
1957;SDS011;979;51.076;13.748;2024-02-23T09:28:38;14.40;;;13.80;;
1957;SDS011;979;51.076;13.748;2024-02-23T09:31:33;14.50;;;14.00;;
1957;SDS011;979;51.076;13.748;2024-02-23T09:37:49;15.70;;;15.20;;
1957;SDS011;979;51.076;13.748;2024-02-23T09:52:11;13.70;;;13.40;;
1957;SDS011;979;51.076;13.748;2024-02-23T10:41:27;14.10;;;13.70;;
1957;SDS011;979;51.076;13.748;2024-02-23T10:44:17;14.90;;;14.20;;
1957;SDS011;979;51.076;13.748;2024-02-23T10:50:36;14.43;;;14.00;;
1957;SDS011;979;51.076;13.748;2024-02-23T12:03:59;14.80;;;14.30;;
1957;SDS011;979;51.076;13.748;2024-02-23T12:11:21;14.00;;;13.60;;
1957;SDS011;979;51.076;13.748;2024-02-23T12:14:21;14.90;;;14.40;;
1957;SDS011;979;51.076;13.748;2024-02-23T12:26:28;14.70;;;14.10;;
1957;SDS011;979;51.076;13.748;2024-02-23T12:33:03;14.23;;;13.83;;
1957;SDS011;979;51.076;13.748;2024-02-23T12:46:45;16.20;;;15.50;;
1957;SDS011;979;51.076;13.748;2024-02-23T12:49:45;14.90;;;14.40;;
1957;SDS011;979;51.076;13.748;2024-02-23T12:52:41;15.10;;;14.40;;
1957;SDS011;979;51.076;13.748;2024-02-23T12:55:39;14.00;;;13.60;;
1957;SDS011;979;51.076;13.748;2024-02-23T12:58:39;14.23;;;13.73;;
1957;SDS011;979;51.076;13.748;2024-02-23T13:41:07;15.33;;;14.53;;
1957;SDS011;979;51.076;13.748;2024-02-23T15:21:36;13.90;;;13.40;;
1957;SDS011;979;51.076;13.748;2024-02-23T17:14:48;14.10;;;13.50;;
1957;SDS011;979;51.076;13.748;2024-02-23T18:06:19;14.30;;;13.80;;
1957;SDS011;979;51.076;13.748;2024-02-23T18:08:51;15.80;;;15.00;;
1957;SDS011;979;51.076;13.748;2024-02-23T18:21:36;15.30;;;14.80;;
1957;SDS011;979;51.076;13.748;2024-02-23T18:24:19;16.53;;;15.67;;
1957;SDS011;979;51.076;13.748;2024-02-23T18:27:05;17.70;;;16.80;;
1957;SDS011;979;51.076;13.748;2024-02-23T18:41:48;20.97;;;19.30;;
1957;SDS011;979;51.076;13.748;2024-02-23T18:44:43;24.47;;;22.27;;
1957;SDS011;979;51.076;13.748;2024-02-23T18:47:49;22.97;;;21.30;;
1957;SDS011;979;51.076;13.748;2024-02-23T18:51:00;20.97;;;19.17;;
1957;SDS011;979;51.076;13.748;2024-02-23T18:53:58;20.20;;;18.80;;
1957;SDS011;979;51.076;13.748;2024-02-23T18:57:12;19.20;;;17.90;;
1957;SDS011;979;51.076;13.748;2024-02-23T18:59:52;18.67;;;17.17;;
1957;SDS011;979;51.076;13.748;2024-02-23T19:02:35;17.30;;;16.40;;
1957;SDS011;979;51.076;13.748;2024-02-23T19:05:16;18.10;;;17.00;;
1957;SDS011;979;51.076;13.748;2024-02-23T19:08:37;20.40;;;19.13;;
1957;SDS011;979;51.076;13.748;2024-02-23T19:12:06;19.90;;;18.40;;
1957;SDS011;979;51.076;13.748;2024-02-23T19:14:59;20.37;;;18.97;;
1957;SDS011;979;51.076;13.748;2024-02-23T19:17:50;19.10;;;17.87;;
1957;SDS011;979;51.076;13.748;2024-02-23T19:20:38;18.80;;;17.47;;
1957;SDS011;979;51.076;13.748;2024-02-23T19:23:29;18.10;;;16.90;;
1957;SDS011;979;51.076;13.748;2024-02-23T19:29:29;18.83;;;17.53;;
1957;SDS011;979;51.076;13.748;2024-02-23T19:32:26;20.83;;;19.40;;
1957;SDS011;979;51.076;13.748;2024-02-23T19:35:03;21.27;;;19.77;;
1957;SDS011;979;51.076;13.748;2024-02-23T19:38:01;20.53;;;19.20;;
1957;SDS011;979;51.076;13.748;2024-02-23T19:43:57;25.43;;;22.83;;
1957;SDS011;979;51.076;13.748;2024-02-23T19:47:07;30.47;;;27.30;;
1957;SDS011;979;51.076;13.748;2024-02-23T19:50:12;21.83;;;20.30;;
1957;SDS011;979;51.076;13.748;2024-02-23T19:53:20;19.67;;;18.20;;
1957;SDS011;979;51.076;13.748;2024-02-23T19:56:37;20.60;;;18.63;;
1957;SDS011;979;51.076;13.748;2024-02-23T19:59:37;20.33;;;18.90;;
1957;SDS011;979;51.076;13.748;2024-02-23T20:02:36;34.70;;;26.57;;
1957;SDS011;979;51.076;13.748;2024-02-23T20:05:14;28.27;;;25.50;;
1957;SDS011;979;51.076;13.748;2024-02-23T20:07:59;35.37;;;27.50;;
1957;SDS011;979;51.076;13.748;2024-02-23T20:11:28;26.43;;;24.10;;
1957;SDS011;979;51.076;13.748;2024-02-23T20:14:54;21.03;;;19.43;;
1957;SDS011;979;51.076;13.748;2024-02-23T20:20:49;19.90;;;18.33;;
1957;SDS011;979;51.076;13.748;2024-02-23T20:24:07;19.67;;;18.10;;
1957;SDS011;979;51.076;13.748;2024-02-23T20:27:01;18.00;;;16.70;;
1957;SDS011;979;51.076;13.748;2024-02-23T20:29:46;18.60;;;17.00;;
1957;SDS011;979;51.076;13.748;2024-02-23T20:32:42;17.50;;;16.33;;
1957;SDS011;979;51.076;13.748;2024-02-23T20:35:51;17.63;;;16.43;;
1957;SDS011;979;51.076;13.748;2024-02-23T20:38:57;17.17;;;16.17;;
1957;SDS011;979;51.076;13.748;2024-02-23T20:41:54;15.03;;;14.30;;
1957;SDS011;979;51.076;13.748;2024-02-23T20:44:53;16.87;;;15.73;;
1957;SDS011;979;51.076;13.748;2024-02-23T20:47:47;17.90;;;16.50;;
1957;SDS011;979;51.076;13.748;2024-02-23T20:51:06;17.90;;;16.60;;
1957;SDS011;979;51.076;13.748;2024-02-23T20:54:00;18.73;;;17.33;;
1957;SDS011;979;51.076;13.748;2024-02-23T20:57:14;18.37;;;16.83;;
1957;SDS011;979;51.076;13.748;2024-02-23T20:59:56;17.07;;;16.07;;
1957;SDS011;979;51.076;13.748;2024-02-23T21:02:54;17.90;;;16.50;;
1957;SDS011;979;51.076;13.748;2024-02-23T21:06:08;18.33;;;16.77;;
1957;SDS011;979;51.076;13.748;2024-02-23T21:08:53;18.00;;;16.80;;
1957;SDS011;979;51.076;13.748;2024-02-23T21:15:51;17.00;;;15.80;;
1957;SDS011;979;51.076;13.748;2024-02-23T21:18:31;17.63;;;16.40;;
1957;SDS011;979;51.076;13.748;2024-02-23T21:21:27;18.00;;;17.00;;
1957;SDS011;979;51.076;13.748;2024-02-23T21:24:12;17.07;;;16.00;;
1957;SDS011;979;51.076;13.748;2024-02-23T21:26:43;16.57;;;15.73;;
1957;SDS011;979;51.076;13.748;2024-02-23T21:29:44;18.20;;;16.50;;
1957;SDS011;979;51.076;13.748;2024-02-23T21:32:27;17.93;;;16.63;;
1957;SDS011;979;51.076;13.748;2024-02-23T21:35:18;18.03;;;16.93;;
1957;SDS011;979;51.076;13.748;2024-02-23T21:38:21;18.50;;;16.93;;
1957;SDS011;979;51.076;13.748;2024-02-23T21:40:59;17.50;;;16.10;;
1957;SDS011;979;51.076;13.748;2024-02-23T21:43:53;17.60;;;16.20;;
1957;SDS011;979;51.076;13.748;2024-02-23T21:46:40;19.27;;;17.77;;
1957;SDS011;979;51.076;13.748;2024-02-23T21:49:32;17.07;;;15.93;;
1957;SDS011;979;51.076;13.748;2024-02-23T21:52:20;16.20;;;15.40;;
1957;SDS011;979;51.076;13.748;2024-02-23T21:55:09;17.40;;;16.50;;
1957;SDS011;979;51.076;13.748;2024-02-23T21:57:56;18.03;;;16.87;;
1957;SDS011;979;51.076;13.748;2024-02-23T22:00:47;17.40;;;16.30;;
1957;SDS011;979;51.076;13.748;2024-02-23T22:03:30;11.80;;;11.60;;
1957;SDS011;979;51.076;13.748;2024-02-23T22:06:30;11.90;;;11.70;;
1957;SDS011;979;51.076;13.748;2024-02-23T22:09:19;12.20;;;12.00;;
1957;SDS011;979;51.076;13.748;2024-02-23T22:12:26;13.30;;;13.00;;
1957;SDS011;979;51.076;13.748;2024-02-23T22:15:12;11.80;;;11.60;;
1957;SDS011;979;51.076;13.748;2024-02-23T22:18:05;11.30;;;11.10;;
1957;SDS011;979;51.076;13.748;2024-02-23T22:21:00;11.70;;;11.50;;
1957;SDS011;979;51.076;13.748;2024-02-23T22:26:56;11.50;;;11.30;;
1957;SDS011;979;51.076;13.748;2024-02-23T22:29:45;11.50;;;11.30;;
1957;SDS011;979;51.076;13.748;2024-02-23T22:32:32;11.17;;;10.97;;
1957;SDS011;979;51.076;13.748;2024-02-23T22:35:19;12.37;;;12.07;;
1957;SDS011;979;51.076;13.748;2024-02-23T22:41:11;11.50;;;11.30;;
1957;SDS011;979;51.076;13.748;2024-02-23T22:43:49;11.50;;;11.30;;
1957;SDS011;979;51.076;13.748;2024-02-23T22:46:42;11.03;;;10.83;;
1957;SDS011;979;51.076;13.748;2024-02-23T22:49:39;11.63;;;11.43;;
1957;SDS011;979;51.076;13.748;2024-02-23T22:52:18;11.40;;;11.20;;
1957;SDS011;979;51.076;13.748;2024-02-23T22:55:07;11.10;;;10.90;;
1957;SDS011;979;51.076;13.748;2024-02-23T22:57:48;11.60;;;11.40;;
1957;SDS011;979;51.076;13.748;2024-02-23T23:00:34;11.60;;;11.40;;
1957;SDS011;979;51.076;13.748;2024-02-23T23:03:18;11.50;;;11.30;;
1957;SDS011;979;51.076;13.748;2024-02-23T23:06:01;11.43;;;11.23;;
1957;SDS011;979;51.076;13.748;2024-02-23T23:08:58;11.20;;;11.00;;
1957;SDS011;979;51.076;13.748;2024-02-23T23:12:08;11.83;;;11.63;;
1957;SDS011;979;51.076;13.748;2024-02-23T23:15:10;11.83;;;11.63;;
1957;SDS011;979;51.076;13.748;2024-02-23T23:17:52;15.03;;;14.33;;
1957;SDS011;979;51.076;13.748;2024-02-23T23:20:55;17.33;;;16.00;;
1957;SDS011;979;51.076;13.748;2024-02-23T23:27:12;15.97;;;14.97;;
1957;SDS011;979;51.076;13.748;2024-02-23T23:29:51;16.00;;;15.13;;
1957;SDS011;979;51.076;13.748;2024-02-23T23:32:33;17.27;;;16.30;;
1957;SDS011;979;51.076;13.748;2024-02-23T23:35:07;17.83;;;16.63;;
1957;SDS011;979;51.076;13.748;2024-02-23T23:37:53;12.00;;;11.80;;
1957;SDS011;979;51.076;13.748;2024-02-23T23:40:39;12.10;;;11.90;;
1957;SDS011;979;51.076;13.748;2024-02-23T23:43:24;12.00;;;11.80;;
1957;SDS011;979;51.076;13.748;2024-02-23T23:46:03;12.07;;;11.87;;
1957;SDS011;979;51.076;13.748;2024-02-23T23:48:54;12.00;;;11.80;;
1957;SDS011;979;51.076;13.748;2024-02-23T23:52:09;12.10;;;11.90;;
1957;SDS011;979;51.076;13.748;2024-02-23T23:55:05;11.80;;;11.60;;
1957;SDS011;979;51.076;13.748;2024-02-23T23:57:46;12.00;;;11.80;;
